createdAt,value
2018-08-20T00:00:10.066Z,24.11
2018-08-20T00:00:42.499Z,24.11
2018-08-20T00:01:15.159Z,24.11
2018-08-20T00:01:47.452Z,24.13
2018-08-20T00:02:19.881Z,24.16
2018-08-20T00:02:51.957Z,24.18
2018-08-20T00:03:24.536Z,24.21
2018-08-20T00:03:56.852Z,24.24
2018-08-20T00:04:29.312Z,24.29
2018-08-20T00:05:01.878Z,24.33
2018-08-20T00:05:33.974Z,24.36
2018-08-20T00:06:06.248Z,24.37
2018-08-20T00:06:38.661Z,24.38
2018-08-20T00:07:10.956Z,24.36
2018-08-20T00:07:43.467Z,24.37
2018-08-20T00:08:15.830Z,24.34
2018-08-20T00:08:48.373Z,24.31
2018-08-20T00:09:21.000Z,24.29
2018-08-20T00:09:53.310Z,24.27
2018-08-20T00:10:25.665Z,24.25
2018-08-20T00:10:58.146Z,24.20
2018-08-20T00:11:30.511Z,24.17
2018-08-20T00:12:02.746Z,24.15
2018-08-20T00:12:35.105Z,24.13
2018-08-20T00:13:07.568Z,24.13
2018-08-20T00:13:39.654Z,24.14
2018-08-20T00:14:11.970Z,24.14
2018-08-20T00:14:44.216Z,24.14
2018-08-20T00:15:16.861Z,24.15
2018-08-20T00:15:49.274Z,24.14
2018-08-20T00:16:21.914Z,24.13
2018-08-20T00:16:54.406Z,24.17
2018-08-20T00:17:26.853Z,24.18
2018-08-20T00:17:58.995Z,24.13
2018-08-20T00:18:31.454Z,24.12
2018-08-20T00:19:03.834Z,24.10
2018-08-20T00:19:36.224Z,24.09
2018-08-20T00:20:08.642Z,24.04
2018-08-20T00:20:41.076Z,24.01
2018-08-20T00:21:13.672Z,24.01
2018-08-20T00:21:46.247Z,24.03
2018-08-20T00:22:18.764Z,24.09
2018-08-20T00:22:51.046Z,24.10
2018-08-20T00:23:23.504Z,24.12
2018-08-20T00:23:55.869Z,24.15
2018-08-20T00:24:28.366Z,24.16
2018-08-20T00:25:00.726Z,24.19
2018-08-20T00:25:33.060Z,24.19
2018-08-20T00:26:05.430Z,24.18
2018-08-20T00:26:37.935Z,24.14
2018-08-20T00:27:10.335Z,24.12
2018-08-20T00:27:42.911Z,24.08
2018-08-20T00:28:15.562Z,24.05
2018-08-20T00:28:48.120Z,24.06
2018-08-20T00:29:21.087Z,24.05
2018-08-20T00:29:53.287Z,24.01
2018-08-20T00:30:26.217Z,24.01
2018-08-20T00:30:58.274Z,24.01
2018-08-20T00:31:30.643Z,24.00
2018-08-20T00:32:03.364Z,23.97
2018-08-20T00:32:35.554Z,23.96
2018-08-20T00:33:08.121Z,23.95
2018-08-20T00:33:40.474Z,23.95
2018-08-20T00:34:13.037Z,23.95
2018-08-20T00:34:45.839Z,23.96
2018-08-20T00:35:18.090Z,23.95
2018-08-20T00:35:50.525Z,23.87
2018-08-20T00:36:22.785Z,23.88
2018-08-20T00:36:55.370Z,23.86
2018-08-20T00:37:27.972Z,23.85
2018-08-20T00:38:00.697Z,23.83
2018-08-20T00:38:33.110Z,23.85
2018-08-20T00:39:05.689Z,23.83
2018-08-20T00:39:38.106Z,23.84
2018-08-20T00:40:10.309Z,23.88
2018-08-20T00:40:42.529Z,23.87
2018-08-20T00:41:14.774Z,23.85
2018-08-20T00:41:47.019Z,23.84
2018-08-20T00:42:19.388Z,23.82
2018-08-20T00:42:52.015Z,23.80
2018-08-20T00:43:24.614Z,23.81
2018-08-20T00:43:56.821Z,23.83
2018-08-20T00:44:29.447Z,23.83
2018-08-20T00:45:02.050Z,23.82
2018-08-20T00:45:34.509Z,23.80
2018-08-20T00:46:07.074Z,23.78
2018-08-20T00:46:39.173Z,23.82
2018-08-20T00:47:11.386Z,23.82
2018-08-20T00:47:43.826Z,23.77
2018-08-20T00:48:16.409Z,23.77
2018-08-20T00:48:49.002Z,23.77
2018-08-20T00:49:21.247Z,23.79
2018-08-20T00:49:53.789Z,23.77
2018-08-20T00:50:25.954Z,23.79
2018-08-20T00:50:58.401Z,23.76
2018-08-20T00:51:30.872Z,23.74
2018-08-20T00:52:03.297Z,23.74
2018-08-20T00:52:35.768Z,23.74
2018-08-20T00:53:08.613Z,23.71
2018-08-20T00:53:41.026Z,23.73
2018-08-20T00:54:13.505Z,23.68
2018-08-20T00:54:45.902Z,23.66
2018-08-20T00:55:18.100Z,23.67
2018-08-20T00:55:50.537Z,23.70
2018-08-20T00:56:23.104Z,23.70
2018-08-20T00:56:55.459Z,23.73
2018-08-20T00:57:28.013Z,23.72
2018-08-20T00:58:00.453Z,23.69
2018-08-20T00:58:32.844Z,23.70
2018-08-20T00:59:05.224Z,23.68
2018-08-20T00:59:37.821Z,23.66
2018-08-20T01:00:10.497Z,23.68
2018-08-20T01:00:42.685Z,23.71
2018-08-20T01:01:14.941Z,23.69
2018-08-20T01:01:47.199Z,23.63
2018-08-20T01:02:19.729Z,23.65
2018-08-20T01:02:51.948Z,23.67
2018-08-20T01:03:24.535Z,23.65
2018-08-20T01:03:56.938Z,23.62
2018-08-20T01:04:29.201Z,23.58
2018-08-20T01:05:01.827Z,23.60
2018-08-20T01:05:34.328Z,23.60
2018-08-20T01:06:06.779Z,23.57
2018-08-20T01:06:39.260Z,23.60
2018-08-20T01:07:12.017Z,23.60
2018-08-20T01:07:44.322Z,23.63
2018-08-20T01:08:16.433Z,23.59
2018-08-20T01:08:48.776Z,23.64
2018-08-20T01:09:21.360Z,23.66
2018-08-20T01:09:53.821Z,23.64
2018-08-20T01:10:26.394Z,23.65
2018-08-20T01:10:58.937Z,23.67
2018-08-20T01:11:31.404Z,23.66
2018-08-20T01:12:03.967Z,23.64
2018-08-20T01:12:36.328Z,23.63
2018-08-20T01:13:08.680Z,23.62
2018-08-20T01:13:41.084Z,23.63
2018-08-20T01:14:13.182Z,23.68
2018-08-20T01:14:45.788Z,23.69
2018-08-20T01:15:18.025Z,23.66
2018-08-20T01:15:50.414Z,23.64
2018-08-20T01:16:22.674Z,23.66
2018-08-20T01:16:55.193Z,23.67
2018-08-20T01:17:27.569Z,23.65
2018-08-20T01:18:00.136Z,23.59
2018-08-20T01:18:32.375Z,23.59
2018-08-20T01:19:04.938Z,23.58
2018-08-20T01:19:37.022Z,23.60
2018-08-20T01:20:09.547Z,23.61
2018-08-20T01:20:42.121Z,23.63
2018-08-20T01:21:14.249Z,23.63
2018-08-20T01:21:46.812Z,23.59
2018-08-20T01:22:19.777Z,23.59
2018-08-20T01:22:52.826Z,23.60
2018-08-20T01:23:25.789Z,23.64
2018-08-20T01:23:57.914Z,23.64
2018-08-20T01:24:30.396Z,23.67
2018-08-20T01:25:02.932Z,23.62
2018-08-20T01:25:35.633Z,23.59
2018-08-20T01:26:09.412Z,23.57
2018-08-20T01:26:41.963Z,23.58
2018-08-20T01:27:14.765Z,23.58
2018-08-20T01:27:47.634Z,23.58
2018-08-20T01:28:20.573Z,23.59
2018-08-20T01:28:53.950Z,23.60
2018-08-20T01:29:26.617Z,23.62
2018-08-20T01:30:00.610Z,23.62
2018-08-20T01:30:32.875Z,23.59
2018-08-20T01:31:05.436Z,23.65
2018-08-20T01:31:38.114Z,23.65
2018-08-20T01:32:11.414Z,23.64
2018-08-20T01:32:44.078Z,23.61
2018-08-20T01:33:16.507Z,23.64
2018-08-20T01:33:48.798Z,23.61
2018-08-20T01:34:21.282Z,23.59
2018-08-20T01:34:53.886Z,23.60
2018-08-20T01:35:26.352Z,23.62
2018-08-20T01:35:59.173Z,23.64
2018-08-20T01:36:32.010Z,23.61
2018-08-20T01:37:04.896Z,23.58
2018-08-20T01:37:37.088Z,23.53
2018-08-20T01:38:09.177Z,23.56
2018-08-20T01:38:41.732Z,23.56
2018-08-20T01:39:14.962Z,23.55
2018-08-20T01:39:48.313Z,23.56
2018-08-20T01:40:21.156Z,23.57
2018-08-20T01:40:53.794Z,23.50
2018-08-20T01:41:26.813Z,23.46
2018-08-20T01:41:59.767Z,23.45
2018-08-20T01:42:31.862Z,23.49
2018-08-20T01:43:03.992Z,23.50
2018-08-20T01:43:36.437Z,23.47
2018-08-20T01:44:08.553Z,23.51
2018-08-20T01:44:40.815Z,23.52
2018-08-20T01:45:12.914Z,23.53
2018-08-20T01:45:45.130Z,23.53
2018-08-20T01:46:17.224Z,23.51
2018-08-20T01:46:49.338Z,23.54
2018-08-20T01:47:21.525Z,23.57
2018-08-20T01:47:53.626Z,23.57
2018-08-20T01:48:25.901Z,23.60
2018-08-20T01:48:58.001Z,23.57
2018-08-20T01:49:30.105Z,23.58
2018-08-20T01:50:02.213Z,23.58
2018-08-20T01:50:34.336Z,23.58
2018-08-20T01:51:06.438Z,23.58
2018-08-20T01:51:38.521Z,23.52
2018-08-20T01:52:10.871Z,23.51
2018-08-20T01:52:42.963Z,23.54
2018-08-20T01:53:15.112Z,23.57
2018-08-20T01:53:47.214Z,23.58
2018-08-20T01:54:19.590Z,23.58
2018-08-20T01:54:51.702Z,23.60
2018-08-20T01:55:24.016Z,23.64
2018-08-20T01:55:56.104Z,23.65
2018-08-20T01:56:28.211Z,23.63
2018-08-20T01:57:00.328Z,23.60
2018-08-20T01:57:32.482Z,23.62
2018-08-20T01:58:04.767Z,23.61
2018-08-20T01:58:36.862Z,23.62
2018-08-20T01:59:09.128Z,23.62
2018-08-20T01:59:41.321Z,23.63
2018-08-20T02:00:13.419Z,23.60
2018-08-20T02:00:45.533Z,23.60
2018-08-20T02:01:17.610Z,23.57
2018-08-20T02:01:49.967Z,23.60
2018-08-20T02:02:22.046Z,23.62
2018-08-20T02:02:54.210Z,23.60
2018-08-20T02:03:26.433Z,23.65
2018-08-20T02:03:58.650Z,23.66
2018-08-20T02:04:30.745Z,23.63
2018-08-20T02:05:02.827Z,23.68
2018-08-20T02:05:34.934Z,23.69
2018-08-20T02:06:06.994Z,23.66
2018-08-20T02:06:39.132Z,23.60
2018-08-20T02:07:11.267Z,23.60
2018-08-20T02:07:43.332Z,23.58
2018-08-20T02:08:15.416Z,23.58
2018-08-20T02:08:47.573Z,23.54
2018-08-20T02:09:19.732Z,23.48
2018-08-20T02:09:51.820Z,23.50
2018-08-20T02:10:23.915Z,23.51
2018-08-20T02:10:56.002Z,23.54
2018-08-20T02:11:28.097Z,23.53
2018-08-20T02:12:00.231Z,23.51
2018-08-20T02:12:32.371Z,23.55
2018-08-20T02:13:04.462Z,23.58
2018-08-20T02:13:36.578Z,23.56
2018-08-20T02:14:08.669Z,23.52
2018-08-20T02:14:40.756Z,23.52
2018-08-20T02:15:13.062Z,23.52
2018-08-20T02:15:45.158Z,23.51
2018-08-20T02:16:17.245Z,23.50
2018-08-20T02:16:49.373Z,23.52
2018-08-20T02:17:21.578Z,23.53
2018-08-20T02:17:53.719Z,23.50
2018-08-20T02:18:25.930Z,23.50
2018-08-20T02:18:58.141Z,23.51
2018-08-20T02:19:30.217Z,23.49
2018-08-20T02:20:02.488Z,23.46
2018-08-20T02:20:34.570Z,23.46
2018-08-20T02:21:06.674Z,23.40
2018-08-20T02:21:38.775Z,23.42
2018-08-20T02:22:10.841Z,23.39
2018-08-20T02:22:43.121Z,23.36
2018-08-20T02:23:15.259Z,23.34
2018-08-20T02:23:47.449Z,23.35
2018-08-20T02:24:19.827Z,23.35
2018-08-20T02:24:51.926Z,23.30
2018-08-20T02:25:24.088Z,23.29
2018-08-20T02:25:56.241Z,23.28
2018-08-20T02:26:28.326Z,23.31
2018-08-20T02:27:00.453Z,23.32
2018-08-20T02:27:32.705Z,23.33
2018-08-20T02:28:04.848Z,23.32
2018-08-20T02:28:36.967Z,23.33
2018-08-20T02:29:09.166Z,23.32
2018-08-20T02:29:41.389Z,23.35
2018-08-20T02:30:13.580Z,23.37
2018-08-20T02:30:45.736Z,23.39
2018-08-20T02:31:17.869Z,23.35
2018-08-20T02:31:50.004Z,23.36
2018-08-20T02:32:22.297Z,23.36
2018-08-20T02:32:54.424Z,23.40
2018-08-20T02:33:26.557Z,23.38
2018-08-20T02:33:58.701Z,23.38
2018-08-20T02:34:30.820Z,23.38
2018-08-20T02:35:02.965Z,23.38
2018-08-20T02:35:35.110Z,23.40
2018-08-20T02:36:07.312Z,23.37
2018-08-20T02:36:39.418Z,23.35
2018-08-20T02:37:11.648Z,23.36
2018-08-20T02:37:43.753Z,23.41
2018-08-20T02:38:15.885Z,23.42
2018-08-20T02:38:48.083Z,23.39
2018-08-20T02:39:20.234Z,23.38
2018-08-20T02:39:52.393Z,23.37
2018-08-20T02:40:24.545Z,23.37
2018-08-20T02:40:56.762Z,23.36
2018-08-20T02:41:28.998Z,23.37
2018-08-20T02:42:01.212Z,23.35
2018-08-20T02:42:33.393Z,23.36
2018-08-20T02:43:05.476Z,23.36
2018-08-20T02:43:37.556Z,23.37
2018-08-20T02:44:09.677Z,23.38
2018-08-20T02:44:41.803Z,23.38
2018-08-20T02:45:13.889Z,23.31
2018-08-20T02:45:46.111Z,23.27
2018-08-20T02:46:18.174Z,23.26
2018-08-20T02:46:50.393Z,23.28
2018-08-20T02:47:22.613Z,23.30
2018-08-20T02:47:54.738Z,23.24
2018-08-20T02:48:26.921Z,23.24
2018-08-20T02:48:59.010Z,23.19
2018-08-20T02:49:31.469Z,23.19
2018-08-20T02:50:03.542Z,23.21
2018-08-20T02:50:35.690Z,23.19
2018-08-20T02:51:07.781Z,23.14
2018-08-20T02:51:39.880Z,23.14
2018-08-20T02:52:11.963Z,23.16
2018-08-20T02:52:44.069Z,23.14
2018-08-20T02:53:16.158Z,23.10
2018-08-20T02:53:48.324Z,23.15
2018-08-20T02:54:20.542Z,23.15
2018-08-20T02:54:52.805Z,23.15
2018-08-20T02:55:24.949Z,23.15
2018-08-20T02:55:57.216Z,23.18
2018-08-20T02:56:29.429Z,23.22
2018-08-20T02:57:01.497Z,23.25
2018-08-20T02:57:33.672Z,23.21
2018-08-20T02:58:05.862Z,23.21
2018-08-20T02:58:38.037Z,23.21
2018-08-20T02:59:10.110Z,23.17
2018-08-20T02:59:42.208Z,23.12
2018-08-20T03:00:14.349Z,23.11
2018-08-20T03:00:46.532Z,23.10
2018-08-20T03:01:18.745Z,23.14
2018-08-20T03:01:50.866Z,23.14
2018-08-20T03:02:22.967Z,23.13
2018-08-20T03:02:55.254Z,23.17
2018-08-20T03:03:27.320Z,23.14
2018-08-20T03:03:59.423Z,23.14
2018-08-20T03:04:31.499Z,23.14
2018-08-20T03:05:03.571Z,23.22
2018-08-20T03:05:35.721Z,23.23
2018-08-20T03:06:07.782Z,23.23
2018-08-20T03:06:40.055Z,23.28
2018-08-20T03:07:12.276Z,23.28
2018-08-20T03:07:44.490Z,23.28
2018-08-20T03:08:16.792Z,23.30
2018-08-20T03:08:48.898Z,23.29
2018-08-20T03:09:21.003Z,23.30
2018-08-20T03:09:53.112Z,23.35
2018-08-20T03:10:25.199Z,23.35
2018-08-20T03:10:57.287Z,23.36
2018-08-20T03:11:29.522Z,23.36
2018-08-20T03:12:01.635Z,23.34
2018-08-20T03:12:33.769Z,23.34
2018-08-20T03:13:05.892Z,23.36
2018-08-20T03:13:38.093Z,23.39
2018-08-20T03:14:10.258Z,23.38
2018-08-20T03:14:42.491Z,23.39
2018-08-20T03:15:14.729Z,23.37
2018-08-20T03:15:46.796Z,23.32
2018-08-20T03:16:19.176Z,23.22
2018-08-20T03:16:51.264Z,23.16
2018-08-20T03:17:23.341Z,23.11
2018-08-20T03:17:55.424Z,23.10
2018-08-20T03:18:27.564Z,23.08
2018-08-20T03:18:59.766Z,23.08
2018-08-20T03:19:31.983Z,23.04
2018-08-20T03:20:04.134Z,23.07
2018-08-20T03:20:36.257Z,23.11
2018-08-20T03:21:08.487Z,23.10
2018-08-20T03:21:40.706Z,23.10
2018-08-20T03:22:12.862Z,23.10
2018-08-20T03:22:44.995Z,23.08
2018-08-20T03:23:17.084Z,23.11
2018-08-20T03:23:49.256Z,23.11
2018-08-20T03:24:21.306Z,23.08
2018-08-20T03:24:53.380Z,23.08
2018-08-20T03:25:25.497Z,23.07
2018-08-20T03:25:57.556Z,23.05
2018-08-20T03:26:29.683Z,23.08
2018-08-20T03:27:01.758Z,23.09
2018-08-20T03:27:33.854Z,23.09
2018-08-20T03:28:05.930Z,23.09
2018-08-20T03:28:38.037Z,23.11
2018-08-20T03:29:10.181Z,23.05
2018-08-20T03:29:42.321Z,23.05
2018-08-20T03:30:14.491Z,23.03
2018-08-20T03:30:46.602Z,23.02
2018-08-20T03:31:18.930Z,23.02
2018-08-20T03:31:51.156Z,22.99
2018-08-20T03:32:23.246Z,23.01
2018-08-20T03:32:55.347Z,23.02
2018-08-20T03:33:27.410Z,23.01
2018-08-20T03:33:59.632Z,23.02
2018-08-20T03:34:31.757Z,23.03
2018-08-20T03:35:03.827Z,23.03
2018-08-20T03:35:35.957Z,23.04
2018-08-20T03:36:08.042Z,23.06
2018-08-20T03:36:40.173Z,23.07
2018-08-20T03:37:12.268Z,23.06
2018-08-20T03:37:44.377Z,23.03
2018-08-20T03:38:16.483Z,23.02
2018-08-20T03:38:48.677Z,23.00
2018-08-20T03:39:20.905Z,23.01
2018-08-20T03:39:53.057Z,23.03
2018-08-20T03:40:25.110Z,22.98
2018-08-20T03:40:57.568Z,22.97
2018-08-20T03:41:29.622Z,22.97
2018-08-20T03:42:01.931Z,22.94
2018-08-20T03:42:33.996Z,22.91
2018-08-20T03:43:06.166Z,22.92
2018-08-20T03:43:38.263Z,22.91
2018-08-20T03:44:10.382Z,22.92
2018-08-20T03:44:42.606Z,22.92
2018-08-20T03:45:14.704Z,22.87
2018-08-20T03:45:46.780Z,22.87
2018-08-20T03:46:18.890Z,22.89
2018-08-20T03:46:50.989Z,22.95
2018-08-20T03:47:23.092Z,22.96
2018-08-20T03:47:55.207Z,22.98
2018-08-20T03:48:27.522Z,23.04
2018-08-20T03:48:59.564Z,23.08
2018-08-20T03:49:31.700Z,23.11
2018-08-20T03:50:03.762Z,23.15
2018-08-20T03:50:35.922Z,23.17
2018-08-20T03:51:08.000Z,23.20
2018-08-20T03:51:40.113Z,23.20
2018-08-20T03:52:12.190Z,23.21
2018-08-20T03:52:44.448Z,23.20
2018-08-20T03:53:16.538Z,23.19
2018-08-20T03:53:48.600Z,23.17
2018-08-20T03:54:20.755Z,23.18
2018-08-20T03:54:53.024Z,23.18
2018-08-20T03:55:25.115Z,23.19
2018-08-20T03:55:57.255Z,23.15
2018-08-20T03:56:29.332Z,23.16
2018-08-20T03:57:01.479Z,23.18
2018-08-20T03:57:33.730Z,23.21
2018-08-20T03:58:05.836Z,23.22
2018-08-20T03:58:37.921Z,23.25
2018-08-20T03:59:10.027Z,23.25
2018-08-20T03:59:42.109Z,23.23
2018-08-20T04:00:14.213Z,23.25
2018-08-20T04:00:46.296Z,23.25
2018-08-20T04:01:18.512Z,23.23
2018-08-20T04:01:50.585Z,23.21
2018-08-20T04:02:22.689Z,23.23
2018-08-20T04:02:54.772Z,23.25
2018-08-20T04:03:26.876Z,23.26
2018-08-20T04:03:58.989Z,23.26
2018-08-20T04:04:31.060Z,23.28
2018-08-20T04:05:03.481Z,23.28
2018-08-20T04:05:35.629Z,23.26
2018-08-20T04:06:07.766Z,23.27
2018-08-20T04:06:39.852Z,23.27
2018-08-20T04:07:11.983Z,23.28
2018-08-20T04:07:44.077Z,23.30
2018-08-20T04:08:16.176Z,23.29
2018-08-20T04:08:48.432Z,23.32
2018-08-20T04:09:20.534Z,23.29
2018-08-20T04:09:52.624Z,23.29
2018-08-20T04:10:24.725Z,23.28
2018-08-20T04:10:56.893Z,23.28
2018-08-20T04:11:29.011Z,23.27
2018-08-20T04:12:01.112Z,23.28
2018-08-20T04:12:33.224Z,23.29
2018-08-20T04:13:05.505Z,23.29
2018-08-20T04:13:37.614Z,23.30
2018-08-20T04:14:09.764Z,23.29
2018-08-20T04:14:41.937Z,23.29
2018-08-20T04:15:14.243Z,23.33
2018-08-20T04:15:46.349Z,23.34
2018-08-20T04:16:18.630Z,23.37
2018-08-20T04:16:50.857Z,23.34
2018-08-20T04:17:23.129Z,23.36
2018-08-20T04:17:55.209Z,23.36
2018-08-20T04:18:27.471Z,23.35
2018-08-20T04:18:59.595Z,23.32
2018-08-20T04:19:31.939Z,23.35
2018-08-20T04:20:04.058Z,23.33
2018-08-20T04:20:36.208Z,23.35
2018-08-20T04:21:08.336Z,23.38
2018-08-20T04:21:40.408Z,23.36
2018-08-20T04:22:12.513Z,23.35
2018-08-20T04:22:44.596Z,23.32
2018-08-20T04:23:16.710Z,23.33
2018-08-20T04:23:48.969Z,23.32
2018-08-20T04:24:21.110Z,23.32
2018-08-20T04:24:53.213Z,23.31
2018-08-20T04:25:25.322Z,23.31
2018-08-20T04:25:57.690Z,23.32
2018-08-20T04:26:29.909Z,23.31
2018-08-20T04:27:02.300Z,23.34
2018-08-20T04:27:34.427Z,23.35
2018-08-20T04:28:06.528Z,23.34
2018-08-20T04:28:38.763Z,23.34
2018-08-20T04:29:10.862Z,23.36
2018-08-20T04:29:43.036Z,23.38
2018-08-20T04:30:15.161Z,23.45
2018-08-20T04:30:47.470Z,23.51
2018-08-20T04:31:19.736Z,23.57
2018-08-20T04:31:51.972Z,23.63
2018-08-20T04:32:24.208Z,23.67
2018-08-20T04:32:56.340Z,23.71
2018-08-20T04:33:28.446Z,23.74
2018-08-20T04:34:00.761Z,23.76
2018-08-20T04:34:32.867Z,23.77
2018-08-20T04:35:04.952Z,23.78
2018-08-20T04:35:37.134Z,23.77
2018-08-20T04:36:09.380Z,23.80
2018-08-20T04:36:41.587Z,23.81
2018-08-20T04:37:13.653Z,23.81
2018-08-20T04:37:45.853Z,23.84
2018-08-20T04:38:17.973Z,23.84
2018-08-20T04:38:50.054Z,23.86
2018-08-20T04:39:22.184Z,23.86
2018-08-20T04:39:54.314Z,23.87
2018-08-20T04:40:26.436Z,23.86
2018-08-20T04:40:58.514Z,23.86
2018-08-20T04:41:30.633Z,23.85
2018-08-20T04:42:02.767Z,23.86
2018-08-20T04:42:34.810Z,23.85
2018-08-20T04:43:07.133Z,23.87
2018-08-20T04:43:39.328Z,23.86
2018-08-20T04:44:11.602Z,23.87
2018-08-20T04:44:43.729Z,23.88
2018-08-20T04:45:15.832Z,23.87
2018-08-20T04:45:48.053Z,23.88
2018-08-20T04:46:20.210Z,23.89
2018-08-20T04:46:52.327Z,23.88
2018-08-20T04:47:24.424Z,23.89
2018-08-20T04:47:56.647Z,23.88
2018-08-20T04:48:28.748Z,23.88
2018-08-20T04:49:01.049Z,23.88
2018-08-20T04:49:33.136Z,23.88
2018-08-20T04:50:05.375Z,23.88
2018-08-20T04:50:37.436Z,23.88
2018-08-20T04:51:09.708Z,23.88
2018-08-20T04:51:41.593Z,23.89
2018-08-20T04:52:13.720Z,23.88
2018-08-20T04:52:45.836Z,23.89
2018-08-20T04:53:17.927Z,23.89
2018-08-20T04:53:50.047Z,23.87
2018-08-20T04:54:22.165Z,23.87
2018-08-20T04:54:54.255Z,23.87
2018-08-20T04:55:26.363Z,23.87
2018-08-20T04:55:58.449Z,23.87
2018-08-20T04:56:30.664Z,23.86
2018-08-20T04:57:02.733Z,23.87
2018-08-20T04:57:34.850Z,23.86
2018-08-20T04:58:06.927Z,23.88
2018-08-20T04:58:39.157Z,23.90
2018-08-20T04:59:11.313Z,23.91
2018-08-20T04:59:43.470Z,23.92
2018-08-20T05:00:15.582Z,23.91
2018-08-20T05:00:47.659Z,23.92
2018-08-20T05:01:19.759Z,23.95
2018-08-20T05:01:51.961Z,23.94
2018-08-20T05:02:24.147Z,23.94
2018-08-20T05:02:56.311Z,23.95
2018-08-20T05:03:28.449Z,23.94
2018-08-20T05:04:00.698Z,23.95
2018-08-20T05:04:32.725Z,23.95
2018-08-20T05:05:04.808Z,23.96
2018-08-20T05:05:36.937Z,23.95
2018-08-20T05:06:09.051Z,23.95
2018-08-20T05:06:41.180Z,23.95
2018-08-20T05:07:13.325Z,23.95
2018-08-20T05:07:45.392Z,23.95
2018-08-20T05:08:17.475Z,23.94
2018-08-20T05:08:49.577Z,23.94
2018-08-20T05:09:21.698Z,23.93
2018-08-20T05:09:53.861Z,23.93
2018-08-20T05:10:25.946Z,23.94
2018-08-20T05:10:58.065Z,23.94
2018-08-20T05:11:30.196Z,23.94
2018-08-20T05:12:02.374Z,23.94
2018-08-20T05:12:34.467Z,23.92
2018-08-20T05:13:07.236Z,23.94
2018-08-20T05:13:39.388Z,23.93
2018-08-20T05:14:11.606Z,23.92
2018-08-20T05:14:43.706Z,23.91
2018-08-20T05:15:15.913Z,23.90
2018-08-20T05:15:48.043Z,23.89
2018-08-20T05:16:20.131Z,23.90
2018-08-20T05:16:52.218Z,23.91
2018-08-20T05:17:24.298Z,23.89
2018-08-20T05:17:56.415Z,23.91
2018-08-20T05:18:28.650Z,23.91
2018-08-20T05:19:00.846Z,23.93
2018-08-20T05:19:32.904Z,23.92
2018-08-20T05:20:05.028Z,23.91
2018-08-20T05:20:37.185Z,23.91
2018-08-20T05:21:09.342Z,23.90
2018-08-20T05:21:41.449Z,23.90
2018-08-20T05:22:13.560Z,23.90
2018-08-20T05:22:45.664Z,23.90
2018-08-20T05:23:17.748Z,23.90
2018-08-20T05:23:49.966Z,23.90
2018-08-20T05:24:22.074Z,23.91
2018-08-20T05:24:54.170Z,23.92
2018-08-20T05:25:26.428Z,23.92
2018-08-20T05:25:58.681Z,23.93
2018-08-20T05:26:30.824Z,23.95
2018-08-20T05:27:02.959Z,23.95
2018-08-20T05:27:35.028Z,23.96
2018-08-20T05:28:07.368Z,23.96
2018-08-20T05:28:39.439Z,23.98
2018-08-20T05:29:11.554Z,23.97
2018-08-20T05:29:43.691Z,23.98
2018-08-20T05:30:15.769Z,23.98
2018-08-20T05:30:47.887Z,23.98
2018-08-20T05:31:20.125Z,23.98
2018-08-20T05:31:52.252Z,23.98
2018-08-20T05:32:24.432Z,23.97
2018-08-20T05:32:56.572Z,23.99
2018-08-20T05:33:28.634Z,23.99
2018-08-20T05:34:00.871Z,24.01
2018-08-20T05:34:32.964Z,24.00
2018-08-20T05:35:05.046Z,24.00
2018-08-20T05:35:37.138Z,23.99
2018-08-20T05:36:09.252Z,23.99
2018-08-20T05:36:41.605Z,23.99
2018-08-20T05:37:13.858Z,23.98
2018-08-20T05:37:45.925Z,23.98
2018-08-20T05:38:18.064Z,23.99
2018-08-20T05:38:50.341Z,23.99
2018-08-20T05:39:22.613Z,24.00
2018-08-20T05:39:54.730Z,23.99
2018-08-20T05:40:26.797Z,24.00
2018-08-20T05:40:58.872Z,23.99
2018-08-20T05:41:30.980Z,24.00
2018-08-20T05:42:03.347Z,24.01
2018-08-20T05:42:35.860Z,24.02
2018-08-20T05:43:07.910Z,24.03
2018-08-20T05:43:40.051Z,24.04
2018-08-20T05:44:12.198Z,24.04
2018-08-20T05:44:44.309Z,24.03
2018-08-20T05:45:16.371Z,24.02
2018-08-20T05:45:48.529Z,24.05
2018-08-20T05:46:20.630Z,24.05
2018-08-20T05:46:52.712Z,24.03
2018-08-20T05:47:24.873Z,24.01
2018-08-20T05:47:56.985Z,24.01
2018-08-20T05:48:29.119Z,24.02
2018-08-20T05:49:01.501Z,24.01
2018-08-20T05:49:33.600Z,24.02
2018-08-20T05:50:05.862Z,24.07
2018-08-20T05:50:38.071Z,24.06
2018-08-20T05:51:10.133Z,24.04
2018-08-20T05:51:42.261Z,24.03
2018-08-20T05:52:14.589Z,24.01
2018-08-20T05:52:46.689Z,24.04
2018-08-20T05:53:18.942Z,24.05
2018-08-20T05:53:51.101Z,24.03
2018-08-20T05:54:23.274Z,24.02
2018-08-20T05:54:55.505Z,24.00
2018-08-20T05:55:27.572Z,24.00
2018-08-20T05:55:59.837Z,24.01
2018-08-20T05:56:32.026Z,24.00
2018-08-20T05:57:04.190Z,24.01
2018-08-20T05:57:36.318Z,24.01
2018-08-20T05:58:08.454Z,24.02
2018-08-20T05:58:40.574Z,24.02
2018-08-20T05:59:12.787Z,24.04
2018-08-20T05:59:44.858Z,24.02
2018-08-20T06:00:16.913Z,24.03
2018-08-20T06:00:49.005Z,24.02
2018-08-20T06:01:21.089Z,24.02
2018-08-20T06:01:53.295Z,24.05
2018-08-20T06:02:25.390Z,24.07
2018-08-20T06:02:57.673Z,24.08
2018-08-20T06:03:29.750Z,24.07
2018-08-20T06:04:01.910Z,24.08
2018-08-20T06:04:34.057Z,24.06
2018-08-20T06:05:06.294Z,24.05
2018-08-20T06:05:38.375Z,24.04
2018-08-20T06:06:10.482Z,24.07
2018-08-20T06:06:42.605Z,24.05
2018-08-20T06:07:14.941Z,24.03
2018-08-20T06:07:47.179Z,24.03
2018-08-20T06:08:19.285Z,24.03
2018-08-20T06:08:51.492Z,24.04
2018-08-20T06:09:23.590Z,24.03
2018-08-20T06:09:55.914Z,24.04
2018-08-20T06:10:27.997Z,24.03
2018-08-20T06:11:00.177Z,24.07
2018-08-20T06:11:32.406Z,24.08
2018-08-20T06:12:04.502Z,24.09
2018-08-20T06:12:36.742Z,24.09
2018-08-20T06:13:08.828Z,24.09
2018-08-20T06:13:41.058Z,24.09
2018-08-20T06:14:13.406Z,24.08
2018-08-20T06:14:45.732Z,24.08
2018-08-20T06:15:18.078Z,24.11
2018-08-20T06:15:50.185Z,24.11
2018-08-20T06:16:22.282Z,24.11
2018-08-20T06:16:54.490Z,24.13
2018-08-20T06:17:26.578Z,24.11
2018-08-20T06:17:58.722Z,24.13
2018-08-20T06:18:30.805Z,24.14
2018-08-20T06:19:02.897Z,24.13
2018-08-20T06:19:35.190Z,24.11
2018-08-20T06:20:07.458Z,24.12
2018-08-20T06:20:39.538Z,24.14
2018-08-20T06:21:11.633Z,24.14
2018-08-20T06:21:43.698Z,24.13
2018-08-20T06:22:15.777Z,24.14
2018-08-20T06:22:47.981Z,24.15
2018-08-20T06:23:20.074Z,24.15
2018-08-20T06:23:52.317Z,24.15
2018-08-20T06:24:24.417Z,24.16
2018-08-20T06:24:56.656Z,24.15
2018-08-20T06:25:28.887Z,24.16
2018-08-20T06:26:00.998Z,24.15
2018-08-20T06:26:33.197Z,24.14
2018-08-20T06:27:05.291Z,24.14
2018-08-20T06:27:37.376Z,24.14
2018-08-20T06:28:09.818Z,24.14
2018-08-20T06:28:41.960Z,24.13
2018-08-20T06:29:14.231Z,24.13
2018-08-20T06:29:46.377Z,24.14
2018-08-20T06:30:18.585Z,24.15
2018-08-20T06:30:50.682Z,24.18
2018-08-20T06:31:22.806Z,24.19
2018-08-20T06:31:54.957Z,24.20
2018-08-20T06:32:27.410Z,24.22
2018-08-20T06:32:59.657Z,24.22
2018-08-20T06:33:31.729Z,24.23
2018-08-20T06:34:03.894Z,24.23
2018-08-20T06:34:35.968Z,24.22
2018-08-20T06:35:08.130Z,24.24
2018-08-20T06:35:40.459Z,24.24
2018-08-20T06:36:12.488Z,24.22
2018-08-20T06:36:44.852Z,24.24
2018-08-20T06:37:17.100Z,24.24
2018-08-20T06:37:49.218Z,24.22
2018-08-20T06:38:21.305Z,24.25
2018-08-20T06:38:53.390Z,24.24
2018-08-20T06:39:25.494Z,24.23
2018-08-20T06:39:57.671Z,24.21
2018-08-20T06:40:29.856Z,24.21
2018-08-20T06:41:01.937Z,24.19
2018-08-20T06:41:34.067Z,24.21
2018-08-20T06:42:06.247Z,24.23
2018-08-20T06:42:38.461Z,24.23
2018-08-20T06:43:10.650Z,24.22
2018-08-20T06:43:42.729Z,24.22
2018-08-20T06:44:14.955Z,24.23
2018-08-20T06:44:47.149Z,24.24
2018-08-20T06:45:19.275Z,24.24
2018-08-20T06:45:51.411Z,24.26
2018-08-20T06:46:23.705Z,24.26
2018-08-20T06:46:55.922Z,24.25
2018-08-20T06:47:28.013Z,24.24
2018-08-20T06:48:00.514Z,24.24
2018-08-20T06:48:32.687Z,24.25
2018-08-20T06:49:04.894Z,24.26
2018-08-20T06:49:37.114Z,24.25
2018-08-20T06:50:09.346Z,24.27
2018-08-20T06:50:41.420Z,24.26
2018-08-20T06:51:13.503Z,24.27
2018-08-20T06:51:45.733Z,24.26
2018-08-20T06:52:17.816Z,24.25
2018-08-20T06:52:49.929Z,24.27
2018-08-20T06:53:22.007Z,24.28
2018-08-20T06:53:54.136Z,24.29
2018-08-20T06:54:26.286Z,24.29
2018-08-20T06:54:58.298Z,24.29